X  CloseMetar Aviation Weather Data     KLNK Lincoln Airport

Temperature

70°F Temperature

34°F Dewpoint

27% Humidity



Wind

15 MPH

24 KM/H

 7 M/S

13 KTS



160°
South South
East
Current Conditions

Clear Clear
Pressure 1021.72 (hPa) - 30.17 (in)
Visibility 9.9 (mi) - 16 (km)
Airport
Airport-code KLNK

Location Lincoln Airport 7 (mi)

Metar:
KLNK 132354Z 16013G18KT 10SM CLR 21/01 A3017 RMK AO2 SLP216 T02060011 10222 20194 56024

Time: 13-05-2021 6:54